sensor_id;sensor_type;location;lat;lon;timestamp;pressure;altitude;pressure_sealevel;temperature;humidity
80482;BME280;69797;43.864;21.410;2024-02-21T00:00:44;100862.84;;;6.37;84.38
80482;BME280;69797;43.864;21.410;2024-02-21T00:03:12;100865.78;;;6.59;83.84
80482;BME280;69797;43.864;21.410;2024-02-21T00:05:39;100878.88;;;6.86;83.07
80482;BME280;69797;43.864;21.410;2024-02-21T00:08:06;100874.34;;;7.02;82.37
80482;BME280;69797;43.864;21.410;2024-02-21T00:10:33;100865.56;;;7.14;81.35
80482;BME280;69797;43.864;21.410;2024-02-21T00:13:00;100887.03;;;7.32;80.97
80482;BME280;69797;43.864;21.410;2024-02-21T00:15:28;100884.06;;;7.42;80.41
80482;BME280;69797;43.864;21.410;2024-02-21T00:17:54;100855.09;;;7.41;80.21
80482;BME280;69797;43.864;21.410;2024-02-21T00:20:21;100872.44;;;7.63;79.81
80482;BME280;69797;43.864;21.410;2024-02-21T00:22:48;100842.72;;;7.53;79.29
80482;BME280;69797;43.864;21.410;2024-02-21T00:25:15;100873.00;;;7.73;78.76
80482;BME280;69797;43.864;21.410;2024-02-21T00:27:42;100879.59;;;7.79;78.63
80482;BME280;69797;43.864;21.410;2024-02-21T00:30:09;100878.28;;;7.75;78.27
80482;BME280;69797;43.864;21.410;2024-02-21T00:32:36;100849.50;;;7.57;77.93
80482;BME280;69797;43.864;21.410;2024-02-21T00:35:03;100878.91;;;7.62;78.50
80482;BME280;69797;43.864;21.410;2024-02-21T00:37:31;100881.47;;;7.63;78.08
80482;BME280;69797;43.864;21.410;2024-02-21T00:39:58;100869.50;;;7.50;78.74
80482;BME280;69797;43.864;21.410;2024-02-21T00:42:25;100866.00;;;7.41;78.21
80482;BME280;69797;43.864;21.410;2024-02-21T00:44:51;100887.06;;;7.47;78.87
80482;BME280;69797;43.864;21.410;2024-02-21T00:47:18;100872.47;;;7.40;78.79
80482;BME280;69797;43.864;21.410;2024-02-21T00:49:45;100844.28;;;7.33;78.36
80482;BME280;69797;43.864;21.410;2024-02-21T00:52:12;100860.50;;;7.49;78.09
80482;BME280;69797;43.864;21.410;2024-02-21T00:54:39;100854.66;;;7.52;77.64
80482;BME280;69797;43.864;21.410;2024-02-21T00:57:19;100844.66;;;7.44;77.59
80482;BME280;69797;43.864;21.410;2024-02-21T00:59:45;100855.41;;;7.61;77.52
80482;BME280;69797;43.864;21.410;2024-02-21T01:02:12;100840.25;;;7.58;77.56
80482;BME280;69797;43.864;21.410;2024-02-21T01:04:39;100837.06;;;7.55;77.49
80482;BME280;69797;43.864;21.410;2024-02-21T01:07:06;100847.72;;;7.64;77.09
80482;BME280;69797;43.864;21.410;2024-02-21T01:09:33;100851.28;;;7.65;76.90
80482;BME280;69797;43.864;21.410;2024-02-21T01:12:00;100819.66;;;7.41;77.02
80482;BME280;69797;43.864;21.410;2024-02-21T01:14:27;100854.47;;;7.54;77.48
80482;BME280;69797;43.864;21.410;2024-02-21T01:16:54;100845.13;;;7.48;77.91
80482;BME280;69797;43.864;21.410;2024-02-21T01:19:21;100833.75;;;7.44;77.88
80482;BME280;69797;43.864;21.410;2024-02-21T01:21:48;100843.09;;;7.50;77.96
80482;BME280;69797;43.864;21.410;2024-02-21T01:24:15;100832.19;;;7.50;78.27
80482;BME280;69797;43.864;21.410;2024-02-21T01:26:42;100836.78;;;7.50;77.91
80482;BME280;69797;43.864;21.410;2024-02-21T01:29:08;100810.63;;;7.40;78.90
80482;BME280;69797;43.864;21.410;2024-02-21T01:31:35;100823.53;;;7.47;78.07
80482;BME280;69797;43.864;21.410;2024-02-21T01:34:02;100817.41;;;7.44;77.87
80482;BME280;69797;43.864;21.410;2024-02-21T01:36:29;100834.72;;;7.52;78.63
80482;BME280;69797;43.864;21.410;2024-02-21T01:38:56;100832.91;;;7.44;79.06
80482;BME280;69797;43.864;21.410;2024-02-21T01:41:22;100833.38;;;7.48;78.58
80482;BME280;69797;43.864;21.410;2024-02-21T01:43:49;100829.25;;;7.52;78.75
80482;BME280;69797;43.864;21.410;2024-02-21T01:46:16;100829.00;;;7.61;78.31
80482;BME280;69797;43.864;21.410;2024-02-21T01:48:44;100797.13;;;7.47;79.00
80482;BME280;69797;43.864;21.410;2024-02-21T01:51:12;100802.41;;;7.49;78.71
80482;BME280;69797;43.864;21.410;2024-02-21T01:53:43;100818.84;;;7.70;78.18
80482;BME280;69797;43.864;21.410;2024-02-21T01:56:10;100816.97;;;7.71;78.89
80482;BME280;69797;43.864;21.410;2024-02-21T01:58:39;100804.28;;;7.63;78.82
80482;BME280;69797;43.864;21.410;2024-02-21T02:01:07;100810.94;;;7.60;78.90
80482;BME280;69797;43.864;21.410;2024-02-21T02:03:34;100794.38;;;7.47;79.43
80482;BME280;69797;43.864;21.410;2024-02-21T02:06:05;100808.50;;;7.51;79.50
80482;BME280;69797;43.864;21.410;2024-02-21T02:08:32;100818.34;;;7.52;80.10
80482;BME280;69797;43.864;21.410;2024-02-21T02:10:59;100796.47;;;7.45;79.94
80482;BME280;69797;43.864;21.410;2024-02-21T02:13:27;100808.78;;;7.56;79.43
80482;BME280;69797;43.864;21.410;2024-02-21T02:15:54;100781.31;;;7.42;79.36
80482;BME280;69797;43.864;21.410;2024-02-21T02:18:21;100796.06;;;7.48;79.23
80482;BME280;69797;43.864;21.410;2024-02-21T02:20:48;100795.22;;;7.48;79.85
80482;BME280;69797;43.864;21.410;2024-02-21T02:23:31;100817.25;;;7.61;79.67
80482;BME280;69797;43.864;21.410;2024-02-21T02:25:58;100775.97;;;7.49;79.24
80482;BME280;69797;43.864;21.410;2024-02-21T02:28:26;100794.69;;;7.67;78.96
80482;BME280;69797;43.864;21.410;2024-02-21T02:30:53;100798.63;;;7.79;78.86
80482;BME280;69797;43.864;21.410;2024-02-21T02:33:20;100805.22;;;7.85;78.71
80482;BME280;69797;43.864;21.410;2024-02-21T02:35:47;100785.09;;;7.71;78.28
80482;BME280;69797;43.864;21.410;2024-02-21T02:38:14;100770.88;;;7.61;78.89
80482;BME280;69797;43.864;21.410;2024-02-21T02:40:41;100788.91;;;7.77;79.31
80482;BME280;69797;43.864;21.410;2024-02-21T02:43:09;100800.97;;;7.82;78.70
80482;BME280;69797;43.864;21.410;2024-02-21T02:45:36;100799.75;;;7.85;78.53
80482;BME280;69797;43.864;21.410;2024-02-21T02:48:03;100800.31;;;7.80;77.79
80482;BME280;69797;43.864;21.410;2024-02-21T02:50:31;100817.44;;;7.89;78.04
80482;BME280;69797;43.864;21.410;2024-02-21T02:52:58;100820.25;;;7.96;77.99
80482;BME280;69797;43.864;21.410;2024-02-21T02:55:25;100820.25;;;7.96;77.75
80482;BME280;69797;43.864;21.410;2024-02-21T02:57:53;100816.47;;;7.97;77.65
80482;BME280;69797;43.864;21.410;2024-02-21T03:00:20;100826.19;;;7.99;78.05
80482;BME280;69797;43.864;21.410;2024-02-21T03:02:49;100827.66;;;8.02;77.93
80482;BME280;69797;43.864;21.410;2024-02-21T03:05:19;100805.56;;;7.97;77.78
80482;BME280;69797;43.864;21.410;2024-02-21T03:07:47;100782.34;;;7.86;77.49
80482;BME280;69797;43.864;21.410;2024-02-21T03:10:14;100816.09;;;8.00;77.66
80482;BME280;69797;43.864;21.410;2024-02-21T03:12:44;100799.47;;;7.80;78.60
80482;BME280;69797;43.864;21.410;2024-02-21T03:15:12;100814.88;;;7.73;79.10
80482;BME280;69797;43.864;21.410;2024-02-21T03:17:39;100824.38;;;7.62;79.51
80482;BME280;69797;43.864;21.410;2024-02-21T03:20:07;100824.00;;;7.65;79.43
80482;BME280;69797;43.864;21.410;2024-02-21T03:22:39;100827.88;;;7.71;79.54
80482;BME280;69797;43.864;21.410;2024-02-21T03:25:07;100810.00;;;7.68;79.33
80482;BME280;69797;43.864;21.410;2024-02-21T03:27:34;100823.38;;;7.78;78.80
80482;BME280;69797;43.864;21.410;2024-02-21T03:30:01;100819.28;;;7.59;79.16
80482;BME280;69797;43.864;21.410;2024-02-21T03:32:28;100823.44;;;7.55;79.37
80482;BME280;69797;43.864;21.410;2024-02-21T03:34:56;100813.19;;;7.42;79.42
80482;BME280;69797;43.864;21.410;2024-02-21T03:37:23;100816.19;;;7.47;79.41
80482;BME280;69797;43.864;21.410;2024-02-21T03:39:50;100835.75;;;7.65;79.92
80482;BME280;69797;43.864;21.410;2024-02-21T03:42:17;100838.88;;;7.77;79.26
80482;BME280;69797;43.864;21.410;2024-02-21T03:44:44;100822.59;;;7.84;78.84
80482;BME280;69797;43.864;21.410;2024-02-21T03:47:11;100826.47;;;7.89;78.59
80482;BME280;69797;43.864;21.410;2024-02-21T03:49:38;100830.28;;;7.95;78.38
80482;BME280;69797;43.864;21.410;2024-02-21T03:52:06;100833.13;;;8.02;78.25
80482;BME280;69797;43.864;21.410;2024-02-21T03:54:32;100833.59;;;8.05;78.20
80482;BME280;69797;43.864;21.410;2024-02-21T03:56:59;100838.88;;;8.07;77.78
80482;BME280;69797;43.864;21.410;2024-02-21T03:59:26;100813.09;;;7.94;77.69
80482;BME280;69797;43.864;21.410;2024-02-21T04:01:53;100835.56;;;8.11;78.06
80482;BME280;69797;43.864;21.410;2024-02-21T04:04:20;100830.78;;;8.13;77.50
80482;BME280;69797;43.864;21.410;2024-02-21T04:06:51;100835.44;;;8.20;77.12
80482;BME280;69797;43.864;21.410;2024-02-21T04:09:18;100810.34;;;8.09;76.91
80482;BME280;69797;43.864;21.410;2024-02-21T04:11:45;100814.56;;;8.12;77.35
80482;BME280;69797;43.864;21.410;2024-02-21T04:14:12;100817.59;;;8.17;77.15
80482;BME280;69797;43.864;21.410;2024-02-21T04:16:39;100796.69;;;8.09;76.85
80482;BME280;69797;43.864;21.410;2024-02-21T04:19:07;100805.63;;;8.18;76.93
80482;BME280;69797;43.864;21.410;2024-02-21T04:21:34;100826.88;;;8.23;76.71
80482;BME280;69797;43.864;21.410;2024-02-21T04:24:01;100815.69;;;8.17;77.19
80482;BME280;69797;43.864;21.410;2024-02-21T04:26:30;100803.84;;;8.10;77.01
80482;BME280;69797;43.864;21.410;2024-02-21T04:28:57;100829.16;;;8.19;76.75
80482;BME280;69797;43.864;21.410;2024-02-21T04:31:24;100791.94;;;7.97;77.47
80482;BME280;69797;43.864;21.410;2024-02-21T04:33:51;100836.50;;;8.18;76.82
80482;BME280;69797;43.864;21.410;2024-02-21T04:36:18;100810.06;;;8.04;76.62
80482;BME280;69797;43.864;21.410;2024-02-21T04:38:45;100832.72;;;8.20;77.01
80482;BME280;69797;43.864;21.410;2024-02-21T04:41:12;100833.97;;;8.17;76.81
80482;BME280;69797;43.864;21.410;2024-02-21T04:43:39;100833.75;;;8.18;76.51
80482;BME280;69797;43.864;21.410;2024-02-21T04:46:06;100837.78;;;8.23;76.31
80482;BME280;69797;43.864;21.410;2024-02-21T04:48:32;100823.44;;;8.14;76.15
80482;BME280;69797;43.864;21.410;2024-02-21T04:50:59;100851.91;;;8.26;76.24
80482;BME280;69797;43.864;21.410;2024-02-21T04:53:26;100854.00;;;8.24;76.08
80482;BME280;69797;43.864;21.410;2024-02-21T04:55:53;100830.47;;;8.08;76.68
80482;BME280;69797;43.864;21.410;2024-02-21T04:58:20;100851.56;;;8.14;76.42
80482;BME280;69797;43.864;21.410;2024-02-21T05:00:46;100836.22;;;7.99;76.64
80482;BME280;69797;43.864;21.410;2024-02-21T05:03:13;100826.72;;;7.94;76.64
80482;BME280;69797;43.864;21.410;2024-02-21T05:05:40;100823.06;;;7.87;76.49
80482;BME280;69797;43.864;21.410;2024-02-21T05:08:07;100839.63;;;8.01;76.96
80482;BME280;69797;43.864;21.410;2024-02-21T05:10:34;100848.75;;;8.08;76.42
80482;BME280;69797;43.864;21.410;2024-02-21T05:13:01;100824.66;;;7.97;76.64
80482;BME280;69797;43.864;21.410;2024-02-21T05:15:28;100826.56;;;7.96;76.49
80482;BME280;69797;43.864;21.410;2024-02-21T05:17:55;100846.50;;;7.97;76.22
80482;BME280;69797;43.864;21.410;2024-02-21T05:20:21;100830.97;;;7.82;76.52
80482;BME280;69797;43.864;21.410;2024-02-21T05:22:48;100848.91;;;7.91;77.31
80482;BME280;69797;43.864;21.410;2024-02-21T05:25:15;100856.09;;;7.92;77.79
80482;BME280;69797;43.864;21.410;2024-02-21T05:27:42;100851.28;;;7.94;77.30
80482;BME280;69797;43.864;21.410;2024-02-21T05:30:09;100841.50;;;7.85;77.35
80482;BME280;69797;43.864;21.410;2024-02-21T05:32:36;100860.88;;;7.90;77.67
80482;BME280;69797;43.864;21.410;2024-02-21T05:35:03;100866.22;;;7.99;77.77
80482;BME280;69797;43.864;21.410;2024-02-21T05:37:30;100878.84;;;8.00;77.61
80482;BME280;69797;43.864;21.410;2024-02-21T05:39:57;100878.66;;;8.01;77.56
80482;BME280;69797;43.864;21.410;2024-02-21T05:42:24;100884.97;;;8.02;77.12
80482;BME280;69797;43.864;21.410;2024-02-21T05:44:51;100861.56;;;7.92;77.25
80482;BME280;69797;43.864;21.410;2024-02-21T05:47:17;100878.28;;;8.04;77.22
80482;BME280;69797;43.864;21.410;2024-02-21T05:49:47;100880.81;;;8.06;77.43
80482;BME280;69797;43.864;21.410;2024-02-21T05:52:14;100886.19;;;8.14;76.80
80482;BME280;69797;43.864;21.410;2024-02-21T05:54:42;100878.47;;;8.17;77.13
80482;BME280;69797;43.864;21.410;2024-02-21T05:57:09;100884.94;;;8.16;77.10
80482;BME280;69797;43.864;21.410;2024-02-21T05:59:38;100891.16;;;8.25;76.77
80482;BME280;69797;43.864;21.410;2024-02-21T06:02:07;100860.97;;;8.12;77.04
80482;BME280;69797;43.864;21.410;2024-02-21T06:04:34;100878.56;;;8.24;76.52
80482;BME280;69797;43.864;21.410;2024-02-21T06:07:01;100883.63;;;8.27;76.59
80482;BME280;69797;43.864;21.410;2024-02-21T06:09:28;100883.25;;;8.30;76.73
80482;BME280;69797;43.864;21.410;2024-02-21T06:11:55;100885.59;;;8.33;76.21
80482;BME280;69797;43.864;21.410;2024-02-21T06:14:22;100900.88;;;8.43;76.50
80482;BME280;69797;43.864;21.410;2024-02-21T06:16:49;100905.97;;;8.46;75.97
80482;BME280;69797;43.864;21.410;2024-02-21T06:19:16;100907.34;;;8.41;76.40
80482;BME280;69797;43.864;21.410;2024-02-21T06:21:43;100922.59;;;8.51;76.46
80482;BME280;69797;43.864;21.410;2024-02-21T06:24:10;100895.59;;;8.41;75.80
80482;BME280;69797;43.864;21.410;2024-02-21T06:26:40;100918.91;;;8.58;75.69
80482;BME280;69797;43.864;21.410;2024-02-21T06:29:07;100910.94;;;8.57;76.07
80482;BME280;69797;43.864;21.410;2024-02-21T06:31:35;100882.16;;;8.39;75.96
80482;BME280;69797;43.864;21.410;2024-02-21T06:34:02;100894.38;;;8.44;76.31
80482;BME280;69797;43.864;21.410;2024-02-21T06:36:29;100916.00;;;8.60;76.17
80482;BME280;69797;43.864;21.410;2024-02-21T06:38:56;100908.00;;;8.58;76.59
80482;BME280;69797;43.864;21.410;2024-02-21T06:41:23;100920.13;;;8.71;75.82
80482;BME280;69797;43.864;21.410;2024-02-21T06:43:50;100918.25;;;8.71;76.02
80482;BME280;69797;43.864;21.410;2024-02-21T06:46:27;100892.91;;;8.62;75.96
80482;BME280;69797;43.864;21.410;2024-02-21T06:48:58;100914.16;;;8.82;75.68
80482;BME280;69797;43.864;21.410;2024-02-21T06:51:26;100904.47;;;8.79;75.70
80482;BME280;69797;43.864;21.410;2024-02-21T06:53:53;100902.69;;;8.72;75.83
80482;BME280;69797;43.864;21.410;2024-02-21T06:56:23;100914.47;;;8.72;75.92
80482;BME280;69797;43.864;21.410;2024-02-21T06:58:53;100903.53;;;8.72;76.61
80482;BME280;69797;43.864;21.410;2024-02-21T07:01:20;100899.13;;;8.71;76.57
80482;BME280;69797;43.864;21.410;2024-02-21T07:03:47;100899.00;;;8.79;76.52
80482;BME280;69797;43.864;21.410;2024-02-21T07:06:14;100912.22;;;8.97;75.94
80482;BME280;69797;43.864;21.410;2024-02-21T07:08:41;100910.03;;;9.07;75.82
80482;BME280;69797;43.864;21.410;2024-02-21T07:11:08;100903.72;;;9.28;75.70
80482;BME280;69797;43.864;21.410;2024-02-21T07:13:35;100925.47;;;9.65;74.70
80482;BME280;69797;43.864;21.410;2024-02-21T07:16:02;100899.91;;;9.51;73.76
80482;BME280;69797;43.864;21.410;2024-02-21T07:18:29;100907.59;;;9.41;74.13
80482;BME280;69797;43.864;21.410;2024-02-21T07:20:56;100933.66;;;9.36;75.27
80482;BME280;69797;43.864;21.410;2024-02-21T07:23:23;100916.72;;;9.05;76.32
80482;BME280;69797;43.864;21.410;2024-02-21T07:25:49;100933.72;;;9.22;76.04
80482;BME280;69797;43.864;21.410;2024-02-21T07:28:16;100929.34;;;9.27;76.14
80482;BME280;69797;43.864;21.410;2024-02-21T07:30:43;100932.94;;;9.49;76.03
80482;BME280;69797;43.864;21.410;2024-02-21T07:33:10;100937.06;;;9.67;75.44
80482;BME280;69797;43.864;21.410;2024-02-21T07:35:37;100932.16;;;9.83;74.71
80482;BME280;69797;43.864;21.410;2024-02-21T07:38:04;100925.78;;;10.04;74.17
80482;BME280;69797;43.864;21.410;2024-02-21T07:40:32;100906.88;;;10.16;74.05
80482;BME280;69797;43.864;21.410;2024-02-21T07:42:59;100914.44;;;10.42;72.44
80482;BME280;69797;43.864;21.410;2024-02-21T07:45:25;100921.69;;;10.63;72.33
80482;BME280;69797;43.864;21.410;2024-02-21T07:47:53;100919.81;;;10.70;71.93
80482;BME280;69797;43.864;21.410;2024-02-21T07:50:20;100923.66;;;10.83;71.75
80482;BME280;69797;43.864;21.410;2024-02-21T07:52:46;100923.50;;;10.97;71.00
80482;BME280;69797;43.864;21.410;2024-02-21T07:55:13;100928.78;;;11.05;70.71
80482;BME280;69797;43.864;21.410;2024-02-21T07:57:40;100927.53;;;11.15;70.70
80482;BME280;69797;43.864;21.410;2024-02-21T08:00:07;100934.72;;;11.22;70.50
80482;BME280;69797;43.864;21.410;2024-02-21T08:02:41;100920.19;;;11.28;69.95
80482;BME280;69797;43.864;21.410;2024-02-21T08:05:10;100909.19;;;11.35;70.02
80482;BME280;69797;43.864;21.410;2024-02-21T08:07:39;100901.19;;;11.34;69.43
80482;BME280;69797;43.864;21.410;2024-02-21T08:10:06;100923.34;;;11.39;69.67
80482;BME280;69797;43.864;21.410;2024-02-21T08:12:35;100917.63;;;11.20;69.56
80482;BME280;69797;43.864;21.410;2024-02-21T08:15:02;100917.63;;;11.07;70.38
80482;BME280;69797;43.864;21.410;2024-02-21T08:17:35;100923.09;;;11.07;70.31
80482;BME280;69797;43.864;21.410;2024-02-21T08:20:03;100914.84;;;11.00;70.22
80482;BME280;69797;43.864;21.410;2024-02-21T08:22:31;100927.06;;;10.98;69.82
80482;BME280;69797;43.864;21.410;2024-02-21T08:24:58;100905.13;;;10.91;70.07
80482;BME280;69797;43.864;21.410;2024-02-21T08:27:24;100925.41;;;11.10;69.97
80482;BME280;69797;43.864;21.410;2024-02-21T08:29:51;100917.19;;;11.03;69.99
80482;BME280;69797;43.864;21.410;2024-02-21T08:32:18;100906.00;;;11.05;69.96
80482;BME280;69797;43.864;21.410;2024-02-21T08:34:45;100917.63;;;11.07;69.97
80482;BME280;69797;43.864;21.410;2024-02-21T08:37:12;100918.03;;;11.04;69.90
80482;BME280;69797;43.864;21.410;2024-02-21T08:39:38;100897.56;;;10.93;70.58
80482;BME280;69797;43.864;21.410;2024-02-21T08:42:05;100908.94;;;11.10;71.00
80482;BME280;69797;43.864;21.410;2024-02-21T08:44:33;100895.50;;;11.28;70.35
80482;BME280;69797;43.864;21.410;2024-02-21T08:46:59;100927.19;;;11.64;69.82
80482;BME280;69797;43.864;21.410;2024-02-21T08:49:30;100914.50;;;11.63;69.00
80482;BME280;69797;43.864;21.410;2024-02-21T08:52:01;100930.75;;;11.78;69.06
80482;BME280;69797;43.864;21.410;2024-02-21T08:54:29;100925.47;;;11.76;68.73
80482;BME280;69797;43.864;21.410;2024-02-21T08:56:55;100930.78;;;11.71;68.76
80482;BME280;69797;43.864;21.410;2024-02-21T08:59:23;100927.16;;;11.71;69.33
80482;BME280;69797;43.864;21.410;2024-02-21T09:01:51;100905.66;;;11.55;69.27
80482;BME280;69797;43.864;21.410;2024-02-21T09:04:19;100924.63;;;11.63;69.51
80482;BME280;69797;43.864;21.410;2024-02-21T09:06:46;100938.34;;;11.63;69.70
80482;BME280;69797;43.864;21.410;2024-02-21T09:09:13;100930.97;;;11.50;70.04
80482;BME280;69797;43.864;21.410;2024-02-21T09:11:40;100940.66;;;11.46;69.98
80482;BME280;69797;43.864;21.410;2024-02-21T09:14:07;100938.53;;;11.35;70.10
80482;BME280;69797;43.864;21.410;2024-02-21T09:16:34;100933.66;;;11.23;70.49
80482;BME280;69797;43.864;21.410;2024-02-21T09:19:01;100939.53;;;11.14;70.73
80482;BME280;69797;43.864;21.410;2024-02-21T09:21:28;100943.97;;;11.08;70.95
80482;BME280;69797;43.864;21.410;2024-02-21T09:23:55;100939.91;;;10.91;71.63
80482;BME280;69797;43.864;21.410;2024-02-21T09:26:25;100940.13;;;10.89;71.50
80482;BME280;69797;43.864;21.410;2024-02-21T09:28:53;100956.34;;;10.84;72.52
80482;BME280;69797;43.864;21.410;2024-02-21T09:31:20;100937.94;;;10.65;72.30
80482;BME280;69797;43.864;21.410;2024-02-21T09:33:47;100942.13;;;10.61;72.71
80482;BME280;69797;43.864;21.410;2024-02-21T09:36:14;100943.59;;;10.63;73.19
80482;BME280;69797;43.864;21.410;2024-02-21T09:38:41;100962.91;;;10.90;73.15
80482;BME280;69797;43.864;21.410;2024-02-21T09:41:15;100956.16;;;10.99;73.25
80482;BME280;69797;43.864;21.410;2024-02-21T09:43:51;100955.41;;;11.18;73.47
80482;BME280;69797;43.864;21.410;2024-02-21T09:46:29;100958.78;;;11.27;72.85
80482;BME280;69797;43.864;21.410;2024-02-21T09:51:56;100967.22;;;11.19;73.05
80482;BME280;69797;43.864;21.410;2024-02-21T09:54:24;100957.06;;;11.13;73.29
80482;BME280;69797;43.864;21.410;2024-02-21T09:57:00;100969.28;;;11.03;74.26
80482;BME280;69797;43.864;21.410;2024-02-21T09:59:31;100954.28;;;10.99;74.26
80482;BME280;69797;43.864;21.410;2024-02-21T10:01:58;100958.94;;;11.05;74.68
80482;BME280;69797;43.864;21.410;2024-02-21T10:04:31;100968.84;;;11.07;73.39
80482;BME280;69797;43.864;21.410;2024-02-21T10:06:59;100950.50;;;11.00;74.07
80482;BME280;69797;43.864;21.410;2024-02-21T10:09:27;100963.19;;;11.15;73.29
80482;BME280;69797;43.864;21.410;2024-02-21T10:11:56;100967.41;;;11.24;72.36
80482;BME280;69797;43.864;21.410;2024-02-21T10:14:33;100954.38;;;11.33;72.90
80482;BME280;69797;43.864;21.410;2024-02-21T10:17:00;100954.81;;;11.56;73.12
80482;BME280;69797;43.864;21.410;2024-02-21T10:19:28;100954.41;;;11.79;72.29
80482;BME280;69797;43.864;21.410;2024-02-21T10:22:09;100942.59;;;12.05;71.12
80482;BME280;69797;43.864;21.410;2024-02-21T10:24:37;100947.59;;;12.35;70.31
80482;BME280;69797;43.864;21.410;2024-02-21T10:27:10;100933.22;;;12.39;68.59
80482;BME280;69797;43.864;21.410;2024-02-21T10:29:40;100917.59;;;12.40;69.49
80482;BME280;69797;43.864;21.410;2024-02-21T10:32:14;100909.66;;;12.63;67.55
80482;BME280;69797;43.864;21.410;2024-02-21T10:34:42;100911.94;;;12.80;66.80
80482;BME280;69797;43.864;21.410;2024-02-21T10:37:11;100920.91;;;13.00;66.68
80482;BME280;69797;43.864;21.410;2024-02-21T10:39:39;100913.66;;;13.12;65.21
80482;BME280;69797;43.864;21.410;2024-02-21T10:42:07;100904.34;;;13.07;65.98
80482;BME280;69797;43.864;21.410;2024-02-21T10:44:38;100896.63;;;12.90;65.92
80482;BME280;69797;43.864;21.410;2024-02-21T10:47:11;100904.75;;;12.79;66.93
80482;BME280;69797;43.864;21.410;2024-02-21T10:49:41;100896.31;;;12.67;66.45
80482;BME280;69797;43.864;21.410;2024-02-21T10:55:16;100905.09;;;12.44;67.37
80482;BME280;69797;43.864;21.410;2024-02-21T10:57:43;100884.66;;;12.20;67.68
80482;BME280;69797;43.864;21.410;2024-02-21T11:00:11;100892.91;;;12.13;67.32
80482;BME280;69797;43.864;21.410;2024-02-21T11:02:39;100880.09;;;11.94;68.23
80482;BME280;69797;43.864;21.410;2024-02-21T11:05:07;100869.09;;;11.67;68.34
80482;BME280;69797;43.864;21.410;2024-02-21T11:07:37;100892.34;;;11.65;68.73
80482;BME280;69797;43.864;21.410;2024-02-21T11:10:04;100861.53;;;11.36;69.54
80482;BME280;69797;43.864;21.410;2024-02-21T11:12:35;100875.47;;;11.48;70.20
80482;BME280;69797;43.864;21.410;2024-02-21T11:15:06;100884.31;;;11.57;70.48
80482;BME280;69797;43.864;21.410;2024-02-21T11:17:33;100890.44;;;11.79;72.66
80482;BME280;69797;43.864;21.410;2024-02-21T11:20:13;100869.94;;;11.81;68.85
80482;BME280;69797;43.864;21.410;2024-02-21T11:22:43;100861.94;;;11.73;69.94
80482;BME280;69797;43.864;21.410;2024-02-21T11:25:10;100852.84;;;11.72;70.10
80482;BME280;69797;43.864;21.410;2024-02-21T11:27:45;100865.09;;;11.96;68.68
80482;BME280;69797;43.864;21.410;2024-02-21T11:30:13;100859.56;;;12.03;68.05
80482;BME280;69797;43.864;21.410;2024-02-21T11:32:41;100858.31;;;11.92;67.15
80482;BME280;69797;43.864;21.410;2024-02-21T11:35:08;100847.78;;;11.83;67.65
80482;BME280;69797;43.864;21.410;2024-02-21T11:37:45;100852.00;;;11.92;67.67
80482;BME280;69797;43.864;21.410;2024-02-21T11:40:13;100837.22;;;11.93;66.71
80482;BME280;69797;43.864;21.410;2024-02-21T11:42:40;100844.56;;;12.12;66.79
80482;BME280;69797;43.864;21.410;2024-02-21T11:45:07;100824.75;;;11.97;67.64
80482;BME280;69797;43.864;21.410;2024-02-21T11:47:37;100830.66;;;12.00;68.40
80482;BME280;69797;43.864;21.410;2024-02-21T11:50:11;100844.56;;;12.06;67.31
80482;BME280;69797;43.864;21.410;2024-02-21T11:52:40;100834.47;;;11.93;67.45
80482;BME280;69797;43.864;21.410;2024-02-21T11:55:07;100823.69;;;11.78;67.75
80482;BME280;69797;43.864;21.410;2024-02-21T11:57:37;100820.53;;;11.74;68.78
80482;BME280;69797;43.864;21.410;2024-02-21T12:00:18;100822.69;;;11.86;68.49
80482;BME280;69797;43.864;21.410;2024-02-21T12:02:49;100837.19;;;11.99;68.18
80482;BME280;69797;43.864;21.410;2024-02-21T12:05:18;100832.56;;;11.93;67.79
80482;BME280;69797;43.864;21.410;2024-02-21T12:07:46;100833.00;;;11.90;68.19
80482;BME280;69797;43.864;21.410;2024-02-21T12:10:13;100833.84;;;11.91;68.22
80482;BME280;69797;43.864;21.410;2024-02-21T12:12:40;100833.22;;;11.82;68.16
80482;BME280;69797;43.864;21.410;2024-02-21T12:15:08;100804.31;;;11.53;67.14
80482;BME280;69797;43.864;21.410;2024-02-21T12:17:36;100817.84;;;11.61;67.71
80482;BME280;69797;43.864;21.410;2024-02-21T12:20:03;100812.59;;;11.40;68.56
80482;BME280;69797;43.864;21.410;2024-02-21T12:22:39;100829.22;;;11.38;68.84
80482;BME280;69797;43.864;21.410;2024-02-21T12:25:22;100815.97;;;11.15;69.64
80482;BME280;69797;43.864;21.410;2024-02-21T12:27:55;100826.28;;;11.20;70.70
80482;BME280;69797;43.864;21.410;2024-02-21T12:30:23;100822.91;;;11.24;71.17
80482;BME280;69797;43.864;21.410;2024-02-21T12:32:49;100795.69;;;11.16;70.69
80482;BME280;69797;43.864;21.410;2024-02-21T12:35:16;100796.78;;;11.22;70.84
80482;BME280;69797;43.864;21.410;2024-02-21T12:37:44;100808.78;;;11.34;70.43
80482;BME280;69797;43.864;21.410;2024-02-21T12:40:11;100793.56;;;11.32;71.03
80482;BME280;69797;43.864;21.410;2024-02-21T12:42:40;100797.38;;;11.44;71.26
80482;BME280;69797;43.864;21.410;2024-02-21T12:45:08;100791.47;;;11.53;69.98
80482;BME280;69797;43.864;21.410;2024-02-21T12:47:35;100790.56;;;11.66;69.91
80482;BME280;69797;43.864;21.410;2024-02-21T12:50:03;100803.00;;;11.82;68.95
80482;BME280;69797;43.864;21.410;2024-02-21T12:52:30;100790.97;;;11.90;69.37
80482;BME280;69797;43.864;21.410;2024-02-21T12:54:58;100778.06;;;11.97;69.19